Time;durP1;ratioP1;P1;durP2;ratioP2;P2;SDS_P1;SDS_P2;PMS_P1;PMS_P2;Temp;Humidity;BMP_temperature;BMP_pressure;BME280_temperature;BME280_humidity;BME280_pressure;Samples;Min_cycle;Max_cycle;Signal;HPM_P1;HPM_P2
2022/10/28 00:00:04;;;;;;;14.80;3.92;;;16.70;97.20;;;;;;5077453;28;20507;-73
2022/10/28 00:02:29;;;;;;;12.63;3.38;;;16.70;97.40;;;;;;5067166;28;20028;-74
2022/10/28 00:04:55;;;;;;;12.82;3.90;;;16.70;97.30;;;;;;5069865;28;20029;-74
2022/10/28 00:07:21;;;;;;;11.27;3.17;;;16.80;97.40;;;;;;5078368;28;20024;-74
2022/10/28 00:09:46;;;;;;;10.23;3.63;;;16.80;97.30;;;;;;5078732;28;20032;-74
2022/10/28 00:12:12;;;;;;;10.75;3.38;;;16.80;97.30;;;;;;5078446;28;20025;-74
2022/10/28 00:14:37;;;;;;;10.13;3.47;;;16.80;97.30;;;;;;5078416;28;20037;-74
2022/10/28 00:17:03;;;;;;;12.57;3.85;;;16.70;96.90;;;;;;5076934;28;20094;-74
2022/10/28 00:19:29;;;;;;;10.75;3.70;;;16.70;97.10;;;;;;5075934;28;20493;-74
2022/10/28 00:21:54;;;;;;;13.70;3.58;;;16.70;97.20;;;;;;5074181;28;20051;-74
2022/10/28 00:24:20;;;;;;;9.65;3.20;;;16.70;97.20;;;;;;5076350;28;20025;-74
2022/10/28 00:26:46;;;;;;;9.73;3.67;;;16.70;97.20;;;;;;5088474;28;20024;-74
2022/10/28 00:29:14;;;;;;;12.85;3.70;;;16.70;97.40;;;;;;5077515;28;20382;-74
2022/10/28 00:31:40;;;;;;;8.65;3.78;;;16.70;97.30;;;;;;5073463;28;20424;-74
2022/10/28 00:34:10;;;;;;;10.75;3.38;;;16.70;97.40;;;;;;5078082;28;20086;-74
2022/10/28 00:36:38;;;;;;;14.40;3.97;;;16.60;97.20;;;;;;5064597;28;20031;-74
2022/10/28 00:39:17;;;;;;;12.90;3.40;;;16.60;97.40;;;;;;5073122;28;20059;-75
2022/10/28 00:41:49;;;;;;;10.18;3.67;;;16.70;97.60;;;;;;5066101;28;20029;-73
2022/10/28 00:44:52;;;;;;;13.50;3.88;;;16.70;97.60;;;;;;5074266;28;20078;-73
2022/10/28 00:47:37;;;;;;;12.53;3.40;;;16.70;97.40;;;;;;5071438;28;20039;-73
2022/10/28 00:50:11;;;;;;;10.57;2.97;;;16.80;97.40;;;;;;5071511;28;20317;-73
2022/10/28 00:52:38;;;;;;;13.32;3.88;;;16.80;97.60;;;;;;5066861;28;20024;-73
2022/10/28 00:55:05;;;;;;;10.63;3.25;;;16.80;97.70;;;;;;5071327;28;20477;-73
2022/10/28 00:57:35;;;;;;;10.75;3.47;;;16.80;97.70;;;;;;5071473;28;20044;-73
2022/10/28 01:00:03;;;;;;;11.02;3.65;;;16.80;97.70;;;;;;5065857;28;20033;-73
2022/10/28 01:02:29;;;;;;;13.70;3.83;;;16.80;97.70;;;;;;5068881;28;20017;-74
2022/10/28 01:04:55;;;;;;;14.93;3.83;;;16.80;97.90;;;;;;5064314;28;20034;-74
2022/10/28 01:07:22;;;;;;;10.63;3.47;;;16.80;97.80;;;;;;5066674;28;20024;-74
2022/10/28 01:09:47;;;;;;;11.65;3.47;;;16.80;97.80;;;;;;5065997;28;20025;-75
2022/10/28 01:12:34;;;;;;;13.05;3.70;;;16.80;97.80;;;;;;5076082;28;20104;-74
2022/10/28 01:15:18;;;;;;;11.60;3.58;;;16.80;97.60;;;;;;5073530;28;20113;-75
2022/10/28 01:17:57;;;;;;;10.65;3.80;;;16.80;97.60;;;;;;5065216;28;20037;-75
2022/10/28 01:20:43;;;;;;;12.25;3.80;;;16.70;97.60;;;;;;5076262;28;20477;-74
2022/10/28 01:23:15;;;;;;;10.45;3.03;;;16.70;97.50;;;;;;5075834;28;20075;-74
2022/10/28 01:26:11;;;;;;;11.57;3.63;;;16.70;97.60;;;;;;5072054;28;20032;-75
2022/10/28 01:29:02;;;;;;;11.02;3.30;;;16.70;97.50;;;;;;5074506;28;20025;-74
2022/10/28 01:31:56;;;;;;;12.20;3.53;;;16.70;97.50;;;;;;5075955;28;20074;-74
2022/10/28 01:34:25;;;;;;;11.98;3.67;;;16.70;97.50;;;;;;5050999;28;20535;-74
2022/10/28 01:37:08;;;;;;;14.35;3.92;;;16.70;97.50;;;;;;5066995;28;20115;-74
2022/10/28 01:40:04;;;;;;;8.52;3.20;;;16.70;97.60;;;;;;5072601;28;20028;-74
2022/10/28 01:42:35;;;;;;;11.82;3.88;;;16.60;97.50;;;;;;5077788;28;20020;-74
2022/10/28 01:45:42;;;;;;;10.40;3.88;;;16.60;97.50;;;;;;5070708;28;20028;-74
2022/10/28 01:48:15;;;;;;;10.57;3.40;;;16.50;97.50;;;;;;5028959;28;20069;-75
2022/10/28 01:51:07;;;;;;;11.48;3.35;;;16.60;98.10;;;;;;5057416;28;20041;-75
2022/10/28 01:53:37;;;;;;;9.90;3.88;;;16.50;97.50;;;;;;5068921;28;20040;-75
2022/10/28 01:56:07;;;;;;;10.75;3.40;;;16.50;97.70;;;;;;5074846;28;20086;-75
2022/10/28 01:58:35;;;;;;;8.50;3.42;;;16.50;97.70;;;;;;5073726;28;20028;-75
2022/10/28 02:01:04;;;;;;;14.50;3.58;;;16.50;97.90;;;;;;5081855;28;20581;-75
2022/10/28 02:03:30;;;;;;;16.95;3.72;;;16.50;97.60;;;;;;5063237;28;20029;-75
2022/10/28 02:05:59;;;;;;;9.40;3.45;;;16.50;97.80;;;;;;5070651;28;20031;-74
2022/10/28 02:08:42;;;;;;;10.27;3.28;;;16.50;97.80;;;;;;5072786;28;20025;-74
2022/10/28 02:11:37;;;;;;;9.38;4.00;;;16.50;97.60;;;;;;5077301;28;20025;-75
2022/10/28 02:14:14;;;;;;;9.00;3.50;;;16.40;97.40;;;;;;5073548;28;20040;-75
2022/10/28 02:17:05;;;;;;;8.80;3.40;;;16.40;97.50;;;;;;5069847;28;20041;-74
2022/10/28 02:19:43;;;;;;;10.05;3.28;;;16.40;97.50;;;;;;5076205;28;20032;-75
2022/10/28 02:22:22;;;;;;;12.65;3.60;;;16.40;97.60;;;;;;5063101;28;20025;-74
2022/10/28 02:25:08;;;;;;;8.57;3.42;;;16.30;97.50;;;;;;5076674;28;20036;-74
2022/10/28 02:27:50;;;;;;;8.50;3.17;;;16.30;97.50;;;;;;5066385;28;20036;-74
2022/10/28 02:30:42;;;;;;;10.60;3.15;;;16.30;97.50;;;;;;5069222;28;20033;-74
2022/10/28 02:33:11;;;;;;;10.13;3.67;;;16.30;97.60;;;;;;5060332;28;20047;-74
2022/10/28 02:35:42;;;;;;;8.82;3.22;;;16.20;97.50;;;;;;5063910;28;20024;-74
2022/10/28 02:38:13;;;;;;;11.90;3.65;;;16.30;97.70;;;;;;5069561;28;20062;-75
2022/10/28 02:40:40;;;;;;;9.27;2.85;;;16.30;97.60;;;;;;5075009;28;20024;-74
2022/10/28 02:43:09;;;;;;;14.07;3.75;;;16.30;97.70;;;;;;5084621;28;20104;-74
2022/10/28 02:45:40;;;;;;;8.98;3.88;;;16.30;97.60;;;;;;5070262;28;20033;-75
2022/10/28 02:48:26;;;;;;;10.95;3.70;;;16.20;97.60;;;;;;5076974;28;20029;-74
2022/10/28 02:51:06;;;;;;;8.35;3.40;;;16.20;97.60;;;;;;5078435;28;20040;-75
2022/10/28 02:53:43;;;;;;;10.05;3.20;;;16.20;97.80;;;;;;5078065;28;20021;-75
2022/10/28 02:56:13;;;;;;;10.18;4.00;;;16.30;97.70;;;;;;5065292;28;20039;-75
2022/10/28 02:58:39;;;;;;;10.98;3.65;;;16.30;97.70;;;;;;5078563;28;20481;-75
2022/10/28 03:01:06;;;;;;;12.07;3.47;;;16.20;97.80;;;;;;5076196;28;20035;-75
2022/10/28 03:03:32;;;;;;;8.75;3.28;;;16.20;97.70;;;;;;5077131;28;20067;-74
2022/10/28 03:05:58;;;;;;;8.75;3.40;;;16.20;97.80;;;;;;5079717;28;20024;-74
2022/10/28 03:08:24;;;;;;;10.80;3.58;;;16.20;97.90;;;;;;5070180;28;20016;-74
2022/10/28 03:10:50;;;;;;;12.52;4.32;;;16.20;97.70;;;;;;5078523;28;20028;-75
2022/10/28 03:13:16;;;;;;;15.23;3.50;;;16.20;97.70;;;;;;5079585;28;20028;-74
2022/10/28 03:15:41;;;;;;;11.90;3.47;;;16.20;97.80;;;;;;5078149;28;20406;-74
2022/10/28 03:18:07;;;;;;;9.95;3.17;;;16.20;97.80;;;;;;5079949;28;20020;-74
2022/10/28 03:20:33;;;;;;;9.32;3.03;;;16.20;97.90;;;;;;5076585;28;20048;-74
2022/10/28 03:22:58;;;;;;;11.60;3.95;;;16.20;97.90;;;;;;5078086;28;20404;-75
2022/10/28 03:25:24;;;;;;;7.55;3.38;;;16.20;97.90;;;;;;5066611;28;20508;-74
2022/10/28 03:27:50;;;;;;;8.63;3.63;;;16.30;98.10;;;;;;5079816;28;20052;-74
2022/10/28 03:30:17;;;;;;;9.18;3.45;;;16.30;97.90;;;;;;5079743;28;20060;-74
2022/10/28 03:32:43;;;;;;;8.25;2.92;;;16.30;98.00;;;;;;5073731;28;20021;-74
2022/10/28 03:35:09;;;;;;;7.97;2.92;;;16.30;98.00;;;;;;5076547;28;20123;-74
2022/10/28 03:37:34;;;;;;;8.18;2.95;;;16.30;97.90;;;;;;5077610;28;20104;-75
2022/10/28 03:40:01;;;;;;;11.45;2.80;;;16.40;98.00;;;;;;5075008;28;20029;-74
2022/10/28 03:42:27;;;;;;;7.18;3.42;;;16.40;97.90;;;;;;5066159;28;20021;-74
2022/10/28 03:44:53;;;;;;;8.45;3.47;;;16.40;97.90;;;;;;5078815;28;20035;-74
2022/10/28 03:47:19;;;;;;;7.57;3.05;;;16.40;97.80;;;;;;5079084;28;20036;-74
2022/10/28 03:49:44;;;;;;;11.88;3.20;;;16.40;97.80;;;;;;5075901;28;20035;-74
2022/10/28 03:52:10;;;;;;;11.57;3.40;;;16.40;97.90;;;;;;5074690;28;20114;-74
2022/10/28 03:54:36;;;;;;;10.45;2.92;;;16.40;97.80;;;;;;5071739;28;20029;-74
2022/10/28 03:57:01;;;;;;;8.90;3.20;;;16.40;97.90;;;;;;5079427;28;20043;-74
2022/10/28 03:59:27;;;;;;;11.20;3.53;;;16.40;97.80;;;;;;5078282;28;20084;-74
2022/10/28 04:01:52;;;;;;;9.32;3.20;;;16.40;97.70;;;;;;5076446;28;20515;-74
2022/10/28 04:04:18;;;;;;;7.75;2.78;;;16.40;97.90;;;;;;5072058;28;20052;-74
2022/10/28 04:06:44;;;;;;;10.23;3.50;;;16.40;97.90;;;;;;5076805;28;20024;-74
2022/10/28 04:09:09;;;;;;;12.57;3.55;;;16.40;97.90;;;;;;5077690;28;20028;-74
2022/10/28 04:11:35;;;;;;;10.63;3.75;;;16.30;97.60;;;;;;5069773;28;20035;-74
2022/10/28 04:14:00;;;;;;;9.10;3.40;;;16.30;97.70;;;;;;5078240;28;20039;-74
2022/10/28 04:16:26;;;;;;;9.35;3.30;;;16.30;97.80;;;;;;5078413;28;20040;-74
2022/10/28 04:18:52;;;;;;;10.02;3.50;;;16.20;97.90;;;;;;5070959;28;20516;-74
2022/10/28 04:21:17;;;;;;;7.50;2.88;;;16.20;98.00;;;;;;5076730;28;20056;-74
2022/10/28 04:23:43;;;;;;;8.65;2.88;;;16.20;98.10;;;;;;5071559;28;20147;-75
2022/10/28 04:26:08;;;;;;;8.48;3.38;;;16.30;98.10;;;;;;5076491;28;20033;-75
2022/10/28 04:28:35;;;;;;;7.40;3.40;;;16.30;98.00;;;;;;5066117;28;20460;-75
2022/10/28 04:31:01;;;;;;;7.82;3.20;;;16.30;98.00;;;;;;5077772;28;20020;-75
2022/10/28 04:33:27;;;;;;;9.82;3.35;;;16.30;98.00;;;;;;5073949;28;20405;-75
2022/10/28 04:35:53;;;;;;;11.25;3.47;;;16.30;98.00;;;;;;5077336;28;20024;-75
2022/10/28 04:38:19;;;;;;;12.30;3.60;;;16.30;98.00;;;;;;5075944;28;20064;-75
2022/10/28 04:40:48;;;;;;;7.13;3.30;;;16.30;98.00;;;;;;5073472;28;20068;-75
2022/10/28 04:43:14;;;;;;;10.48;3.70;;;16.30;98.00;;;;;;5071211;28;20039;-75
2022/10/28 04:45:39;;;;;;;10.70;3.70;;;16.30;98.00;;;;;;5076305;28;20024;-75
2022/10/28 04:48:06;;;;;;;10.13;3.42;;;16.30;97.80;;;;;;5066373;28;20043;-75
2022/10/28 04:50:32;;;;;;;9.68;3.30;;;16.20;98.20;;;;;;5069214;28;20040;-75
2022/10/28 04:52:57;;;;;;;8.68;3.20;;;16.20;98.00;;;;;;5069124;28;20112;-75
2022/10/28 04:55:23;;;;;;;9.50;3.35;;;16.10;98.10;;;;;;5071290;28;20059;-75
2022/10/28 04:57:56;;;;;;;11.23;3.40;;;16.20;98.30;;;;;;5060801;28;20017;-76
2022/10/28 05:00:23;;;;;;;8.05;3.55;;;16.20;98.30;;;;;;5065054;28;20024;-75
2022/10/28 05:02:49;;;;;;;8.93;3.40;;;16.20;98.20;;;;;;5073740;28;20067;-75
2022/10/28 05:05:15;;;;;;;9.63;3.63;;;16.10;98.00;;;;;;5075494;28;20033;-75
2022/10/28 05:07:41;;;;;;;13.27;3.75;;;16.10;98.10;;;;;;5074568;28;20032;-75
2022/10/28 05:10:07;;;;;;;8.48;3.10;;;16.10;98.30;;;;;;5070973;28;20041;-75
2022/10/28 05:12:32;;;;;;;9.35;3.72;;;16.10;98.10;;;;;;5064148;28;20738;-74
2022/10/28 05:14:58;;;;;;;11.07;3.40;;;16.10;98.10;;;;;;5075756;28;20135;-76
2022/10/28 05:17:24;;;;;;;11.57;3.65;;;16.10;98.10;;;;;;5076268;28;20509;-75
2022/10/28 05:19:49;;;;;;;8.20;3.08;;;16.10;98.10;;;;;;5073502;28;20035;-74
2022/10/28 05:22:15;;;;;;;8.88;3.58;;;16.00;98.00;;;;;;5066616;28;20059;-74
2022/10/28 05:24:40;;;;;;;7.60;3.33;;;16.00;97.80;;;;;;5076693;28;20035;-75
2022/10/28 05:27:06;;;;;;;10.40;3.53;;;16.00;97.90;;;;;;5074433;28;20162;-75
2022/10/28 05:29:32;;;;;;;7.60;3.00;;;15.90;97.90;;;;;;5077214;28;20036;-75
2022/10/28 05:31:58;;;;;;;7.32;3.22;;;15.80;97.90;;;;;;5070569;28;20025;-75
2022/10/28 05:34:23;;;;;;;9.60;3.38;;;15.80;98.00;;;;;;5075388;28;20062;-75
2022/10/28 05:36:49;;;;;;;9.20;3.90;;;15.80;98.20;;;;;;5076724;28;20032;-75
2022/10/28 05:39:16;;;;;;;6.70;3.00;;;15.80;98.30;;;;;;5075756;28;20040;-75
2022/10/28 05:41:41;;;;;;;13.30;3.72;;;15.70;98.40;;;;;;5072546;28;20031;-75
2022/10/28 05:44:07;;;;;;;8.75;3.40;;;15.70;98.30;;;;;;5067125;28;20029;-75
2022/10/28 05:46:32;;;;;;;10.32;3.53;;;15.80;98.40;;;;;;5060043;28;20081;-75
2022/10/28 05:48:58;;;;;;;10.55;3.33;;;15.80;98.50;;;;;;5075320;28;20032;-75
2022/10/28 05:51:24;;;;;;;11.55;3.53;;;15.70;98.50;;;;;;5074645;28;20021;-75
2022/10/28 05:53:50;;;;;;;9.13;3.60;;;15.80;98.40;;;;;;5071366;28;20493;-75
2022/10/28 05:56:16;;;;;;;9.70;3.85;;;15.80;98.60;;;;;;5065595;28;20562;-75
2022/10/28 05:58:42;;;;;;;10.23;3.70;;;15.80;98.70;;;;;;5069648;28;20025;-75
2022/10/28 06:01:08;;;;;;;7.53;3.33;;;15.80;98.70;;;;;;5072915;28;20074;-76
2022/10/28 06:03:34;;;;;;;11.48;3.78;;;15.90;98.50;;;;;;5069612;28;20025;-75
2022/10/28 06:05:59;;;;;;;6.18;3.50;;;15.90;98.40;;;;;;5076207;28;20035;-75
2022/10/28 06:08:25;;;;;;;6.93;3.63;;;15.90;98.40;;;;;;5075664;28;20401;-75
2022/10/28 06:10:52;;;;;;;8.88;3.53;;;15.90;98.60;;;;;;5075939;28;20374;-75
2022/10/28 06:13:18;;;;;;;10.23;4.00;;;15.90;98.40;;;;;;5071790;28;20479;-75
2022/10/28 06:15:43;;;;;;;7.15;3.40;;;15.90;98.60;;;;;;5072111;28;20106;-76
2022/10/28 06:18:09;;;;;;;6.50;3.28;;;15.90;98.50;;;;;;5077144;28;20108;-75
2022/10/28 06:20:35;;;;;;;8.70;3.28;;;15.90;98.60;;;;;;5079696;28;20017;-75
2022/10/28 06:23:00;;;;;;;8.52;3.60;;;15.90;98.60;;;;;;5078095;28;20054;-75
2022/10/28 06:25:26;;;;;;;9.60;3.65;;;16.00;98.80;;;;;;5075152;28;20088;-75
2022/10/28 06:27:57;;;;;;;9.65;3.58;;;16.00;98.60;;;;;;5077537;28;20029;-75
2022/10/28 06:30:24;;;;;;;8.20;3.55;;;16.00;98.80;;;;;;5078205;28;20021;-84
2022/10/28 06:32:50;;;;;;;9.02;3.50;;;16.00;98.60;;;;;;5086112;28;20077;-76
2022/10/28 06:35:16;;;;;;;8.23;3.95;;;16.00;98.70;;;;;;5071297;28;20033;-75
2022/10/28 06:37:42;;;;;;;9.50;3.30;;;16.00;98.80;;;;;;5076290;28;20408;-74
2022/10/28 06:40:08;;;;;;;6.47;3.38;;;16.10;98.90;;;;;;5076257;28;20044;-74
2022/10/28 06:42:33;;;;;;;13.50;3.65;;;16.10;98.80;;;;;;5065941;28;20029;-75
2022/10/28 06:44:59;;;;;;;5.88;3.50;;;16.10;98.60;;;;;;5078926;28;20401;-76
2022/10/28 06:47:25;;;;;;;8.13;3.70;;;16.10;98.70;;;;;;5084856;28;20086;-75
2022/10/28 06:49:50;;;;;;;8.68;3.72;;;16.10;98.90;;;;;;5072495;28;20029;-75
2022/10/28 06:52:16;;;;;;;10.63;3.42;;;16.10;98.80;;;;;;5060937;28;20056;-74
2022/10/28 06:54:42;;;;;;;13.27;3.55;;;16.10;98.60;;;;;;5077342;28;20082;-74
2022/10/28 06:57:09;;;;;;;10.43;3.58;;;16.10;98.70;;;;;;5065105;28;20037;-74
2022/10/28 06:59:35;;;;;;;12.73;3.75;;;16.10;98.60;;;;;;5068668;28;20032;-74
2022/10/28 07:02:00;;;;;;;8.52;3.80;;;16.10;98.80;;;;;;5073443;28;20032;-74
2022/10/28 07:04:26;;;;;;;10.73;3.70;;;16.10;98.90;;;;;;5077058;28;20043;-74
2022/10/28 07:06:55;;;;;;;11.32;3.28;;;16.20;98.90;;;;;;5070245;28;20032;-74
2022/10/28 07:09:21;;;;;;;7.85;3.22;;;16.20;98.80;;;;;;5070813;28;20069;-74
2022/10/28 07:11:50;;;;;;;12.57;4.05;;;16.20;99.00;;;;;;5066793;28;20033;-74
2022/10/28 07:14:16;;;;;;;9.48;3.55;;;16.20;98.80;;;;;;5078810;28;20063;-74
2022/10/28 07:16:42;;;;;;;9.15;3.40;;;16.20;98.90;;;;;;5071146;28;20049;-73
2022/10/28 07:19:08;;;;;;;9.15;3.30;;;16.20;99.10;;;;;;5077414;28;20389;-65
2022/10/28 07:21:34;;;;;;;15.35;3.55;;;16.20;99.40;;;;;;5075082;28;20027;-68
2022/10/28 07:23:59;;;;;;;10.30;3.83;;;16.30;99.50;;;;;;5077889;28;20496;-67
2022/10/28 07:26:25;;;;;;;8.68;3.20;;;16.40;99.50;;;;;;5077674;28;20051;-67
2022/10/28 07:28:51;;;;;;;7.35;2.97;;;16.40;99.40;;;;;;5078169;28;20021;-68
2022/10/28 07:31:17;;;;;;;8.48;3.00;;;16.50;99.50;;;;;;5073010;28;20048;-68
2022/10/28 07:33:42;;;;;;;10.52;3.33;;;16.50;99.50;;;;;;5078246;28;20099;-68
2022/10/28 07:36:09;;;;;;;7.75;3.00;;;16.60;99.60;;;;;;5066546;28;20039;-68
2022/10/28 07:38:35;;;;;;;10.88;3.65;;;16.60;99.70;;;;;;5076951;28;20126;-68
2022/10/28 07:41:06;;;;;;;19.10;3.58;;;16.70;99.60;;;;;;5077018;28;20029;-68
2022/10/28 07:43:37;;;;;;;13.75;3.13;;;16.70;99.60;;;;;;5070181;28;20024;-67
2022/10/28 07:46:05;;;;;;;10.55;2.97;;;16.80;99.80;;;;;;5068309;28;20075;-68
2022/10/28 07:48:31;;;;;;;12.15;2.88;;;16.80;99.70;;;;;;5066316;28;20031;-67
2022/10/28 07:51:00;;;;;;;15.13;3.15;;;16.90;99.70;;;;;;5077339;28;20028;-67
2022/10/28 07:53:26;;;;;;;11.07;3.20;;;16.90;99.60;;;;;;5071660;28;20033;-68
2022/10/28 07:56:03;;;;;;;12.25;2.60;;;16.90;99.70;;;;;;5077505;28;20082;-68
2022/10/28 07:58:29;;;;;;;9.30;2.60;;;16.90;99.70;;;;;;5078520;28;20021;-68
2022/10/28 08:00:54;;;;;;;9.95;2.72;;;17.00;99.80;;;;;;5077746;28;20021;-68
2022/10/28 08:03:21;;;;;;;14.35;2.72;;;17.00;99.90;;;;;;5078181;28;20383;-69
2022/10/28 08:05:46;;;;;;;8.40;2.40;;;17.10;99.90;;;;;;5077807;28;20024;-69
2022/10/28 08:08:12;;;;;;;9.70;2.30;;;17.10;99.80;;;;;;5078368;28;20111;-69
2022/10/28 08:10:38;;;;;;;11.07;2.35;;;17.10;99.70;;;;;;5078192;28;20028;-68
2022/10/28 08:13:05;;;;;;;9.10;2.22;;;17.20;99.70;;;;;;5078403;28;20028;-68
2022/10/28 08:15:31;;;;;;;7.97;2.40;;;17.20;99.60;;;;;;5078216;28;20381;-68
2022/10/28 08:17:57;;;;;;;7.45;2.22;;;17.30;99.50;;;;;;5075477;28;20052;-69
2022/10/28 08:20:22;;;;;;;9.82;2.63;;;17.30;99.40;;;;;;5077816;28;20028;-68
2022/10/28 08:22:48;;;;;;;8.27;2.20;;;17.40;99.30;;;;;;5090987;28;20027;-67
2022/10/28 08:25:14;;;;;;;12.25;2.58;;;17.40;99.10;;;;;;5089407;28;20029;-67
2022/10/28 08:27:41;;;;;;;6.85;2.33;;;17.40;98.90;;;;;;5085059;28;20029;-67
2022/10/28 08:30:07;;;;;;;9.52;1.98;;;17.40;98.70;;;;;;5078097;28;20027;-69
2022/10/28 08:32:33;;;;;;;9.00;1.98;;;17.40;98.50;;;;;;5077712;28;20099;-69
2022/10/28 08:34:59;;;;;;;12.80;2.58;;;17.40;98.60;;;;;;5077844;28;20025;-68
2022/10/28 08:37:24;;;;;;;7.85;1.70;;;17.40;98.40;;;;;;5083869;28;20025;-69
2022/10/28 08:39:50;;;;;;;7.35;1.70;;;17.50;97.90;;;;;;5077457;28;20020;-68
2022/10/28 08:42:21;;;;;;;7.30;2.05;;;17.50;98.20;;;;;;5080720;28;20103;-69
2022/10/28 08:45:13;;;;;;;6.72;1.65;;;17.50;98.30;;;;;;5076754;28;20032;-68
2022/10/28 08:47:50;;;;;;;7.13;1.63;;;17.50;98.10;;;;;;5077984;28;20024;-68
2022/10/28 08:50:19;;;;;;;7.03;1.80;;;17.50;98.10;;;;;;5079306;28;20035;-68
2022/10/28 08:53:06;;;;;;;6.30;1.58;;;17.50;97.90;;;;;;5088756;28;20035;-68
2022/10/28 08:55:42;;;;;;;4.95;1.52;;;17.60;98.20;;;;;;5077882;28;20052;-68
2022/10/28 08:58:11;;;;;;;6.68;1.50;;;17.60;98.10;;;;;;5077572;28;20080;-68
2022/10/28 09:00:38;;;;;;;6.05;1.58;;;17.60;98.00;;;;;;5077941;28;20024;-68
2022/10/28 09:03:13;;;;;;;4.07;1.27;;;17.60;97.80;;;;;;5077461;28;20019;-69
2022/10/28 09:05:41;;;;;;;9.57;1.60;;;17.70;97.30;;;;;;5068396;28;20029;-69
2022/10/28 09:08:23;;;;;;;6.85;1.48;;;17.60;97.60;;;;;;5077544;28;20048;-69
2022/10/28 09:11:26;;;;;;;7.90;1.60;;;17.70;97.90;;;;;;5077623;28;20035;-68
2022/10/28 09:13:54;;;;;;;6.65;1.30;;;17.80;97.80;;;;;;5076980;28;20029;-68
2022/10/28 09:16:34;;;;;;;5.85;1.33;;;17.80;97.40;;;;;;5077227;28;20048;-74
2022/10/28 09:19:25;;;;;;;7.57;1.92;;;17.80;97.50;;;;;;5077197;28;20034;-68
2022/10/28 09:22:05;;;;;;;6.60;1.25;;;17.80;97.50;;;;;;5076906;28;20061;-68
2022/10/28 09:24:44;;;;;;;6.78;1.40;;;17.90;97.00;;;;;;5077546;28;20024;-68
2022/10/28 09:27:51;;;;;;;6.28;1.20;;;17.90;97.10;;;;;;5089104;28;20032;-67
2022/10/28 09:30:41;;;;;;;5.00;1.08;;;17.90;96.90;;;;;;5033996;28;20050;-68
2022/10/28 09:33:50;;;;;;;4.65;0.93;;;18.00;97.10;;;;;;5070256;28;20397;-68
2022/10/28 09:36:27;;;;;;;4.40;1.25;;;18.10;97.20;;;;;;5063619;28;20047;-68
2022/10/28 09:38:56;;;;;;;5.18;1.15;;;18.10;96.90;;;;;;5066777;28;20384;-67
2022/10/28 09:41:23;;;;;;;4.43;1.23;;;18.10;96.60;;;;;;5077253;28;20028;-68
2022/10/28 09:44:03;;;;;;;5.00;1.08;;;18.20;96.40;;;;;;5077022;28;20063;-68
2022/10/28 09:46:30;;;;;;;7.60;1.20;;;18.10;96.40;;;;;;5077036;28;20031;-68
2022/10/28 09:49:01;;;;;;;4.18;1.05;;;18.20;96.40;;;;;;5077126;28;20023;-70
2022/10/28 09:52:00;;;;;;;3.63;0.80;;;18.20;96.40;;;;;;5076247;28;20058;-68
2022/10/28 09:54:36;;;;;;;3.92;0.90;;;18.30;96.80;;;;;;5076655;28;20035;-66
2022/10/28 09:57:03;;;;;;;5.55;0.93;;;18.40;96.50;;;;;;5077272;28;20151;-67
2022/10/28 09:59:29;;;;;;;3.42;0.80;;;18.30;95.40;;;;;;5076793;28;20028;-67
2022/10/28 10:01:54;;;;;;;4.30;0.93;;;18.30;95.40;;;;;;5077086;28;20021;-67
2022/10/28 10:04:22;;;;;;;5.38;1.00;;;18.30;95.50;;;;;;5076897;28;20059;-67
2022/10/28 10:07:03;;;;;;;5.55;1.13;;;18.30;95.30;;;;;;5079382;28;20093;-66
2022/10/28 10:09:31;;;;;;;8.18;0.98;;;18.30;95.20;;;;;;5075263;28;20041;-69
2022/10/28 10:12:09;;;;;;;3.53;0.63;;;18.30;95.00;;;;;;5075929;28;20082;-69
2022/10/28 10:14:46;;;;;;;4.72;0.93;;;18.30;95.20;;;;;;5063051;28;20052;-69
2022/10/28 10:17:18;;;;;;;6.20;1.20;;;18.40;95.40;;;;;;5074819;28;20056;-69
2022/10/28 10:20:03;;;;;;;5.88;1.20;;;18.40;95.40;;;;;;5074834;28;20024;-69
2022/10/28 10:22:31;;;;;;;4.30;0.80;;;18.50;95.80;;;;;;5076150;28;20048;-69
2022/10/28 10:24:57;;;;;;;6.88;1.20;;;18.60;95.40;;;;;;5075871;28;20465;-67
2022/10/28 10:27:25;;;;;;;4.43;1.00;;;18.60;95.10;;;;;;5076276;28;20033;-68
2022/10/28 10:29:52;;;;;;;4.07;0.95;;;18.60;95.00;;;;;;5076260;28;20032;-66
2022/10/28 10:32:23;;;;;;;4.28;0.73;;;18.60;95.20;;;;;;5076245;28;20031;-66
2022/10/28 10:35:05;;;;;;;3.53;1.13;;;18.60;95.10;;;;;;5076610;28;20035;-66
2022/10/28 10:37:34;;;;;;;5.80;1.00;;;18.60;95.10;;;;;;5074732;28;20043;-67
2022/10/28 10:40:18;;;;;;;3.47;0.90;;;18.60;95.20;;;;;;5073982;28;20390;-68
2022/10/28 10:42:45;;;;;;;6.93;1.00;;;18.60;95.10;;;;;;5076682;28;20035;-68
2022/10/28 10:45:18;;;;;;;6.93;1.10;;;18.60;94.60;;;;;;5075859;28;20017;-70
2022/10/28 10:47:43;;;;;;;5.22;0.88;;;18.60;94.90;;;;;;5076462;28;20025;-67
2022/10/28 10:50:30;;;;;;;7.28;1.00;;;18.60;94.60;;;;;;5076155;28;20434;-66
2022/10/28 10:52:58;;;;;;;3.38;0.80;;;18.60;95.10;;;;;;5076403;28;20043;-66
2022/10/28 10:55:38;;;;;;;4.78;1.05;;;18.70;94.80;;;;;;5075134;28;20025;-67
2022/10/28 10:58:08;;;;;;;2.95;0.90;;;18.80;94.70;;;;;;5075902;28;20071;-68
2022/10/28 11:00:37;;;;;;;5.50;0.98;;;18.80;94.50;;;;;;5074578;28;20043;-67
2022/10/28 11:03:06;;;;;;;5.20;0.80;;;18.80;94.30;;;;;;5076931;28;20064;-67
2022/10/28 11:05:32;;;;;;;4.53;1.15;;;18.90;94.20;;;;;;5079244;28;20691;-67
2022/10/28 11:08:03;;;;;;;4.85;0.95;;;18.90;94.10;;;;;;5079518;28;20023;-74
2022/10/28 11:10:31;;;;;;;6.05;0.95;;;18.90;94.20;;;;;;5079466;28;20107;-67
2022/10/28 11:13:24;;;;;;;6.28;1.13;;;18.90;94.10;;;;;;5078268;28;20052;-67
2022/10/28 11:16:06;;;;;;;2.80;0.90;;;18.90;94.60;;;;;;5078819;28;20028;-67
2022/10/28 11:18:42;;;;;;;5.60;0.93;;;18.90;94.60;;;;;;5079567;28;20027;-66
2022/10/28 11:21:07;;;;;;;4.97;1.00;;;18.90;94.50;;;;;;5079101;28;20017;-67
2022/10/28 11:23:53;;;;;;;6.32;1.00;;;19.00;94.10;;;;;;5079550;28;20028;-68
2022/10/28 11:26:21;;;;;;;5.97;1.02;;;19.00;94.20;;;;;;5079112;28;20020;-67
2022/10/28 11:29:12;;;;;;;4.60;0.98;;;19.00;94.10;;;;;;5079426;28;20024;-67
2022/10/28 11:32:00;;;;;;;2.67;0.90;;;19.00;94.40;;;;;;5079155;28;20093;-67
2022/10/28 11:34:37;;;;;;;5.13;1.13;;;19.10;94.30;;;;;;5067889;28;20112;-69
2022/10/28 11:37:09;;;;;;;7.55;1.33;;;19.10;94.20;;;;;;5078353;28;20181;-69
2022/10/28 11:39:53;;;;;;;6.05;1.10;;;19.10;93.80;;;;;;5078154;28;20049;-69
2022/10/28 11:42:19;;;;;;;9.68;1.85;;;19.10;93.90;;;;;;5066898;28;20116;-68
2022/10/28 11:44:52;;;;;;;6.72;1.48;;;19.20;93.80;;;;;;5078552;28;20052;-68
2022/10/28 11:47:31;;;;;;;;;;;19.20;93.80;;;;;;5072215;28;20035;-68
2022/10/28 11:50:08;;;;;;;3.90;1.33;;;19.30;94.40;;;;;;5077274;28;20334;-68
2022/10/28 11:52:44;;;;;;;7.32;1.50;;;19.30;93.50;;;;;;5077344;28;20028;-68
2022/10/28 11:55:31;;;;;;;7.15;1.50;;;19.20;93.70;;;;;;5065080;28;20046;-69
2022/10/28 11:58:22;;;;;;;3.58;0.95;;;19.30;93.70;;;;;;5075410;28;20021;-68
2022/10/28 12:01:08;;;;;;;4.75;1.17;;;19.20;93.10;;;;;;5074962;28;20112;-68
2022/10/28 12:03:36;;;;;;;4.10;1.10;;;19.30;93.50;;;;;;5078483;28;20027;-68
2022/10/28 12:06:15;;;;;;;5.55;1.00;;;19.30;93.10;;;;;;5077881;28;20100;-68
2022/10/28 12:09:15;;;;;;;5.63;1.02;;;19.30;93.40;;;;;;5075947;28;20077;-68
2022/10/28 12:12:10;;;;;;;5.45;0.90;;;19.40;93.70;;;;;;5055452;28;20040;-68
2022/10/28 12:14:56;;;;;;;2.45;0.98;;;19.40;93.10;;;;;;5063978;28;20367;-68
2022/10/28 12:18:02;;;;;;;3.80;0.95;;;19.40;93.20;;;;;;5075599;28;20114;-68
2022/10/28 12:20:49;;;;;;;5.10;1.00;;;19.40;93.20;;;;;;5073678;28;20029;-68
2022/10/28 12:23:19;;;;;;;2.28;0.80;;;19.40;92.70;;;;;;5077714;28;20031;-68
2022/10/28 12:25:48;;;;;;;2.60;0.80;;;19.40;92.50;;;;;;5077257;28;20112;-69
2022/10/28 12:28:24;;;;;;;3.53;0.80;;;19.40;92.50;;;;;;5077967;28;20024;-67
2022/10/28 12:30:51;;;;;;;5.07;0.90;;;19.40;92.60;;;;;;5063758;28;20024;-69
2022/10/28 12:33:23;;;;;;;2.80;0.88;;;19.40;92.60;;;;;;5076142;28;20028;-69
2022/10/28 12:35:57;;;;;;;8.65;1.10;;;19.30;93.10;;;;;;5077108;28;20103;-69
2022/10/28 12:38:40;;;;;;;4.55;1.00;;;19.40;93.10;;;;;;5077511;28;20488;-69
2022/10/28 12:41:16;;;;;;;6.07;1.08;;;19.40;93.00;;;;;;5076332;28;20090;-70
2022/10/28 12:44:08;;;;;;;5.53;0.88;;;19.30;92.90;;;;;;5077699;28;20507;-69
2022/10/28 12:46:36;;;;;;;3.08;1.00;;;19.30;93.10;;;;;;5075094;28;20543;-68
2022/10/28 12:49:10;;;;;;;4.45;1.10;;;19.40;93.30;;;;;;5077574;28;20036;-69
2022/10/28 12:51:39;;;;;;;5.15;0.93;;;19.40;92.90;;;;;;5076988;28;20020;-69
2022/10/28 12:54:17;;;;;;;3.20;0.80;;;19.50;92.50;;;;;;5077294;28;20020;-69
2022/10/28 12:56:51;;;;;;;6.30;0.90;;;19.40;92.30;;;;;;5077190;28;20025;-69
2022/10/28 12:59:28;;;;;;;5.93;0.93;;;19.50;92.60;;;;;;5077270;28;20457;-69
2022/10/28 13:01:59;;;;;;;4.22;0.70;;;19.50;92.50;;;;;;5075440;28;20021;-70
2022/10/28 13:04:26;;;;;;;5.05;1.10;;;19.40;92.30;;;;;;5076660;28;20481;-69